createdAt,value
2017-08-27T00:00:31.029Z,97.60
2017-08-27T00:02:57.233Z,97.80
2017-08-27T00:05:23.436Z,98.00
2017-08-27T00:07:49.887Z,97.90
2017-08-27T00:10:16.099Z,97.90
2017-08-27T00:12:42.335Z,98.10
2017-08-27T00:15:08.530Z,98.20
2017-08-27T00:17:35.021Z,98.50
2017-08-27T00:20:01.348Z,98.60
2017-08-27T00:22:27.572Z,98.80
2017-08-27T00:24:53.801Z,98.90
2017-08-27T00:27:20.000Z,99.00
2017-08-27T00:29:46.208Z,99.30
2017-08-27T00:32:12.764Z,99.30
2017-08-27T00:34:38.988Z,99.50
2017-08-27T00:37:05.201Z,99.60
2017-08-27T00:39:31.438Z,99.60
2017-08-27T00:41:57.643Z,99.70
2017-08-27T00:44:23.868Z,99.90
2017-08-27T00:46:50.084Z,99.90
2017-08-27T00:49:16.323Z,99.90
2017-08-27T00:51:42.896Z,99.90
2017-08-27T00:54:09.112Z,99.90
2017-08-27T00:56:35.377Z,99.90
2017-08-27T00:59:01.987Z,99.90
2017-08-27T01:01:28.195Z,99.90
2017-08-27T01:03:54.423Z,99.90
2017-08-27T01:06:20.792Z,99.90
2017-08-27T01:08:47.019Z,99.90
2017-08-27T01:11:13.284Z,99.90
2017-08-27T01:13:39.509Z,99.90
2017-08-27T01:16:05.744Z,99.90
2017-08-27T01:18:31.952Z,99.90
2017-08-27T01:20:58.336Z,99.90
2017-08-27T01:23:24.559Z,99.90
2017-08-27T01:25:50.782Z,99.90
2017-08-27T01:28:16.991Z,99.90
2017-08-27T01:30:43.207Z,99.90
2017-08-27T01:33:09.747Z,99.90
2017-08-27T01:35:35.975Z,99.90
2017-08-27T01:38:02.293Z,99.90
2017-08-27T01:40:28.913Z,99.90
2017-08-27T01:42:55.130Z,99.90
2017-08-27T01:45:21.354Z,99.90
2017-08-27T01:47:47.813Z,99.90
2017-08-27T01:50:14.032Z,99.90
2017-08-27T01:52:40.261Z,99.90
2017-08-27T01:55:06.525Z,99.90
2017-08-27T01:57:32.746Z,99.90
2017-08-27T01:59:58.962Z,99.90
2017-08-27T02:02:25.534Z,99.90
2017-08-27T02:04:51.750Z,99.90
2017-08-27T02:07:17.974Z,99.90
2017-08-27T02:09:44.201Z,99.90
2017-08-27T02:12:10.432Z,99.90
2017-08-27T02:14:36.700Z,99.90
2017-08-27T02:17:02.928Z,99.90
2017-08-27T02:19:29.171Z,99.90
2017-08-27T02:21:55.424Z,99.90
2017-08-27T02:24:21.649Z,99.90
2017-08-27T02:26:47.870Z,99.90
2017-08-27T02:29:14.141Z,99.90
2017-08-27T02:31:40.357Z,99.90
2017-08-27T02:34:06.578Z,99.90
2017-08-27T02:36:33.070Z,99.90
2017-08-27T02:38:59.293Z,99.90
2017-08-27T02:41:25.507Z,99.90
2017-08-27T02:43:51.858Z,99.90
2017-08-27T02:46:18.093Z,99.90
2017-08-27T02:48:44.330Z,99.90
2017-08-27T02:51:10.577Z,99.90
2017-08-27T02:53:36.798Z,99.90
2017-08-27T02:56:03.013Z,99.90
2017-08-27T02:58:29.247Z,99.90
2017-08-27T03:00:55.505Z,99.90
2017-08-27T03:03:21.731Z,99.90
2017-08-27T03:05:55.038Z,99.90
2017-08-27T03:08:21.254Z,99.90
2017-08-27T03:10:47.483Z,99.90
2017-08-27T03:13:13.782Z,99.90
2017-08-27T03:15:40.002Z,99.90
2017-08-27T03:18:06.214Z,99.90
2017-08-27T03:20:32.500Z,99.90
2017-08-27T03:22:58.717Z,99.90
2017-08-27T03:25:24.945Z,99.90
2017-08-27T03:27:51.197Z,99.90
2017-08-27T03:30:17.436Z,99.90
2017-08-27T03:32:43.662Z,99.90
2017-08-27T03:35:10.317Z,99.90
2017-08-27T03:37:36.545Z,99.90
2017-08-27T03:40:02.799Z,99.90
2017-08-27T03:42:29.413Z,99.90
2017-08-27T03:44:55.644Z,99.90
2017-08-27T03:47:21.874Z,99.90
2017-08-27T03:49:48.138Z,99.90
2017-08-27T03:52:14.359Z,99.90
2017-08-27T03:54:40.576Z,99.90
2017-08-27T03:57:06.809Z,99.90
2017-08-27T03:59:33.237Z,99.90
2017-08-27T04:01:59.450Z,99.90
2017-08-27T04:04:25.674Z,99.90
2017-08-27T04:06:51.909Z,99.90
2017-08-27T04:09:18.153Z,99.90
2017-08-27T04:11:44.378Z,99.90
2017-08-27T04:14:10.638Z,99.90
2017-08-27T04:16:36.858Z,99.90
2017-08-27T04:19:03.090Z,99.90
2017-08-27T04:21:29.382Z,99.90
2017-08-27T04:23:55.596Z,99.90
2017-08-27T04:26:21.812Z,99.90
2017-08-27T04:28:48.064Z,99.90
2017-08-27T04:31:14.282Z,99.90
2017-08-27T04:33:40.499Z,99.90
2017-08-27T04:36:06.744Z,99.90
2017-08-27T04:38:32.971Z,99.90
2017-08-27T04:40:59.205Z,99.90
2017-08-27T04:43:25.470Z,99.90
2017-08-27T04:45:51.703Z,99.90
2017-08-27T04:48:17.938Z,99.90
2017-08-27T04:50:44.411Z,99.90
2017-08-27T04:53:10.689Z,99.90
2017-08-27T04:55:36.921Z,99.90
2017-08-27T04:58:03.189Z,99.90
2017-08-27T05:00:29.410Z,99.90
2017-08-27T05:02:55.683Z,99.90
2017-08-27T05:05:21.935Z,99.90
2017-08-27T05:07:48.224Z,99.90
2017-08-27T05:10:14.454Z,99.90
2017-08-27T05:12:40.669Z,99.90
2017-08-27T05:15:06.899Z,99.90
2017-08-27T05:17:33.125Z,99.90
2017-08-27T05:19:59.407Z,99.90
2017-08-27T05:22:25.630Z,99.90
2017-08-27T05:24:51.853Z,99.90
2017-08-27T05:27:18.104Z,99.90
2017-08-27T05:29:44.337Z,99.90
2017-08-27T05:32:10.589Z,99.90
2017-08-27T05:34:36.851Z,99.90
2017-08-27T05:37:03.078Z,99.90
2017-08-27T05:39:29.309Z,99.90
2017-08-27T05:41:55.679Z,99.90
2017-08-27T05:44:21.919Z,99.90
2017-08-27T05:46:48.187Z,99.90
2017-08-27T05:49:14.726Z,99.90
2017-08-27T05:51:41.255Z,99.90
2017-08-27T05:54:07.537Z,99.90
2017-08-27T05:56:33.834Z,99.90
2017-08-27T05:59:00.062Z,99.90
2017-08-27T06:01:26.468Z,99.90
2017-08-27T06:03:52.714Z,99.90
2017-08-27T06:06:18.951Z,99.90
2017-08-27T06:08:45.374Z,99.90
2017-08-27T06:11:11.633Z,99.90
2017-08-27T06:13:38.010Z,99.90
2017-08-27T06:16:04.739Z,99.90
2017-08-27T06:18:31.378Z,99.90
2017-08-27T06:20:58.157Z,99.90
2017-08-27T06:23:24.558Z,99.90
2017-08-27T06:25:50.785Z,99.90
2017-08-27T06:28:17.103Z,99.90
2017-08-27T06:30:43.364Z,99.90
2017-08-27T06:33:09.722Z,99.90
2017-08-27T06:35:36.223Z,99.90
2017-08-27T06:38:02.465Z,99.90
2017-08-27T06:40:28.679Z,99.90
2017-08-27T06:42:55.961Z,99.90
2017-08-27T06:45:22.303Z,99.90
2017-08-27T06:47:48.596Z,99.90
2017-08-27T06:50:14.809Z,99.80
2017-08-27T06:52:41.062Z,99.40
2017-08-27T06:55:08.028Z,99.60
2017-08-27T06:57:34.267Z,99.20
2017-08-27T07:00:00.534Z,99.00
2017-08-27T07:02:27.537Z,99.20
2017-08-27T07:04:53.859Z,99.00
2017-08-27T07:07:20.117Z,98.40
2017-08-27T07:09:46.352Z,98.30
2017-08-27T07:12:13.584Z,98.00
2017-08-27T07:14:40.748Z,97.40
2017-08-27T07:17:07.950Z,97.40
2017-08-27T07:19:35.552Z,97.00
2017-08-27T07:22:01.934Z,96.90
2017-08-27T07:24:28.165Z,97.10
2017-08-27T07:26:54.424Z,96.20
2017-08-27T07:29:20.641Z,95.70
2017-08-27T07:31:46.901Z,95.00
2017-08-27T07:34:13.447Z,94.90
2017-08-27T07:36:39.662Z,95.40
2017-08-27T07:39:06.215Z,94.10
2017-08-27T07:41:32.964Z,93.60
2017-08-27T07:43:59.193Z,93.80
2017-08-27T07:46:25.432Z,94.00
2017-08-27T07:48:51.678Z,93.30
2017-08-27T07:51:18.184Z,92.90
2017-08-27T07:53:45.333Z,92.50
2017-08-27T07:56:11.870Z,93.30
2017-08-27T07:58:38.145Z,92.40
2017-08-27T08:01:11.594Z,92.40
2017-08-27T08:03:37.822Z,92.50
2017-08-27T08:06:04.066Z,92.40
2017-08-27T08:08:30.302Z,92.00
2017-08-27T08:10:56.603Z,92.80
2017-08-27T08:13:22.863Z,91.10
2017-08-27T08:15:49.379Z,91.10
2017-08-27T08:18:15.614Z,91.20
2017-08-27T08:20:41.824Z,91.20
2017-08-27T08:23:08.257Z,90.50
2017-08-27T08:25:34.497Z,90.10
2017-08-27T08:28:00.716Z,90.10
2017-08-27T08:30:27.258Z,87.90
2017-08-27T08:32:53.477Z,87.40
2017-08-27T08:35:19.711Z,85.20
2017-08-27T08:37:45.986Z,85.40
2017-08-27T08:40:12.218Z,82.40
2017-08-27T08:42:38.467Z,83.90
2017-08-27T08:45:04.717Z,83.70
2017-08-27T08:47:30.949Z,85.00
2017-08-27T08:49:57.173Z,84.00
2017-08-27T08:52:23.414Z,83.90
2017-08-27T08:54:49.634Z,84.30
2017-08-27T08:57:15.868Z,83.00
2017-08-27T08:59:42.383Z,81.70
2017-08-27T09:02:08.610Z,83.10
2017-08-27T09:04:34.838Z,80.70
2017-08-27T09:07:01.099Z,80.90
2017-08-27T09:09:27.330Z,82.00
2017-08-27T09:11:53.542Z,83.00
2017-08-27T09:14:19.872Z,82.60
2017-08-27T09:16:46.093Z,82.00
2017-08-27T09:19:12.306Z,82.70
2017-08-27T09:21:39.360Z,82.00
2017-08-27T09:24:05.586Z,82.30
2017-08-27T09:26:31.815Z,81.60
2017-08-27T09:28:58.035Z,79.50
2017-08-27T09:31:24.270Z,80.60
2017-08-27T09:33:50.717Z,81.60
2017-08-27T09:36:16.931Z,81.70
2017-08-27T09:38:43.144Z,83.30
2017-08-27T09:41:09.414Z,82.80
2017-08-27T09:43:35.630Z,83.60
2017-08-27T09:46:01.853Z,80.70
2017-08-27T09:48:28.141Z,79.70
2017-08-27T09:50:54.361Z,79.60
2017-08-27T09:53:20.573Z,77.90
2017-08-27T09:55:46.802Z,76.80
2017-08-27T09:58:13.029Z,79.10
2017-08-27T10:00:39.241Z,77.70
2017-08-27T10:03:05.759Z,79.30
2017-08-27T10:05:31.981Z,77.40
2017-08-27T10:07:58.185Z,76.10
2017-08-27T10:10:24.475Z,78.40
2017-08-27T10:12:50.678Z,77.70
2017-08-27T10:15:17.045Z,74.50
2017-08-27T10:17:43.250Z,75.60
2017-08-27T10:20:09.478Z,75.60
2017-08-27T10:22:35.731Z,73.60
2017-08-27T10:25:01.970Z,71.60
2017-08-27T10:27:28.198Z,71.20
2017-08-27T10:29:54.463Z,71.80
2017-08-27T10:32:20.673Z,72.10
2017-08-27T10:34:46.915Z,73.80
2017-08-27T10:37:13.166Z,74.90
2017-08-27T10:39:39.401Z,75.00
2017-08-27T10:42:05.635Z,74.20
2017-08-27T10:44:31.858Z,74.00
2017-08-27T10:46:58.089Z,74.50
2017-08-27T10:49:24.347Z,73.00
2017-08-27T10:51:50.584Z,72.50
2017-08-27T10:54:16.820Z,72.40
2017-08-27T10:56:43.081Z,73.40
2017-08-27T10:59:09.304Z,73.00
2017-08-27T11:01:35.534Z,73.70
2017-08-27T11:04:01.826Z,76.00
2017-08-27T11:06:28.071Z,75.30
2017-08-27T11:08:54.293Z,75.00
2017-08-27T11:11:20.546Z,71.50
2017-08-27T11:13:46.781Z,70.90
2017-08-27T11:16:13.018Z,72.80
2017-08-27T11:18:39.282Z,71.10
2017-08-27T11:21:05.506Z,70.30
2017-08-27T11:23:31.731Z,68.80
2017-08-27T11:25:58.117Z,70.40
2017-08-27T11:28:24.333Z,72.60
2017-08-27T11:30:50.550Z,73.80
2017-08-27T11:33:16.817Z,74.90
2017-08-27T11:35:43.035Z,76.00
2017-08-27T11:38:09.246Z,74.40
2017-08-27T11:40:35.683Z,74.10
2017-08-27T11:43:01.941Z,68.90
2017-08-27T11:45:28.169Z,70.00
2017-08-27T11:47:54.419Z,69.50
2017-08-27T11:50:20.663Z,71.40
2017-08-27T11:52:46.884Z,68.30
2017-08-27T11:55:13.157Z,67.60
2017-08-27T11:57:39.522Z,67.00
2017-08-27T12:00:05.794Z,67.00
2017-08-27T12:02:32.042Z,68.40
2017-08-27T12:04:58.261Z,70.00
2017-08-27T12:07:24.502Z,69.70
2017-08-27T12:09:50.755Z,68.30
2017-08-27T12:12:16.986Z,68.90
2017-08-27T12:14:43.207Z,70.90
2017-08-27T12:17:09.731Z,60.80
2017-08-27T12:19:35.972Z,48.10
2017-08-27T12:22:02.234Z,45.10
2017-08-27T12:24:28.471Z,44.10
2017-08-27T12:26:54.733Z,43.60
2017-08-27T12:29:20.966Z,46.60
2017-08-27T12:31:47.216Z,53.50
2017-08-27T12:34:13.453Z,58.60
2017-08-27T12:36:39.715Z,60.60
2017-08-27T12:39:05.953Z,63.60
2017-08-27T12:41:32.185Z,65.90
2017-08-27T12:43:58.438Z,64.50
2017-08-27T12:46:24.687Z,59.10
2017-08-27T12:48:50.929Z,53.30
2017-08-27T12:51:17.149Z,56.10
2017-08-27T12:53:43.383Z,56.90
2017-08-27T12:56:09.647Z,55.70
2017-08-27T12:58:35.897Z,50.00
2017-08-27T13:01:02.168Z,54.60
2017-08-27T13:03:28.782Z,45.90
2017-08-27T13:05:55.031Z,39.30
2017-08-27T13:08:21.293Z,36.40
2017-08-27T13:10:47.546Z,31.20
2017-08-27T13:13:13.785Z,29.70
2017-08-27T13:15:40.073Z,29.70
2017-08-27T13:18:06.335Z,30.00
2017-08-27T13:20:34.304Z,30.40
2017-08-27T13:23:01.383Z,32.80
2017-08-27T13:25:30.027Z,30.60
2017-08-27T13:27:59.024Z,27.70
2017-08-27T13:30:27.091Z,27.60
2017-08-27T13:32:54.409Z,30.00
2017-08-27T13:35:21.769Z,31.00
2017-08-27T13:37:49.065Z,28.60
2017-08-27T13:40:16.163Z,27.50
2017-08-27T13:42:43.516Z,26.80
2017-08-27T13:45:10.696Z,26.80
2017-08-27T13:47:37.786Z,26.70
2017-08-27T13:50:04.868Z,26.60
2017-08-27T13:52:32.226Z,28.20
2017-08-27T13:54:59.593Z,33.60
2017-08-27T13:57:26.660Z,39.30
2017-08-27T13:59:53.813Z,44.60
2017-08-27T14:02:21.062Z,45.20
2017-08-27T14:04:48.063Z,37.50
2017-08-27T14:07:15.175Z,32.70
2017-08-27T14:09:42.235Z,30.10
2017-08-27T14:12:08.853Z,28.70
2017-08-27T14:14:35.934Z,28.30
2017-08-27T14:17:03.121Z,30.00
2017-08-27T14:19:29.389Z,34.00
2017-08-27T14:21:56.608Z,30.90
2017-08-27T14:24:22.960Z,37.10
2017-08-27T14:26:50.038Z,43.50
2017-08-27T14:29:18.145Z,40.60
2017-08-27T14:31:44.455Z,40.70
2017-08-27T14:34:10.690Z,39.90
2017-08-27T14:36:36.942Z,39.40
2017-08-27T14:39:03.966Z,37.60
2017-08-27T14:41:31.313Z,35.30
2017-08-27T14:43:58.349Z,32.30
2017-08-27T14:46:24.673Z,34.20
2017-08-27T14:48:50.968Z,40.00
2017-08-27T14:51:18.057Z,45.30
2017-08-27T14:53:45.253Z,49.50
2017-08-27T14:56:11.558Z,52.90
2017-08-27T14:58:37.791Z,55.40
2017-08-27T15:01:04.069Z,55.90
2017-08-27T15:03:30.300Z,58.70
2017-08-27T15:05:56.564Z,57.50
2017-08-27T15:08:23.168Z,58.00
2017-08-27T15:10:51.469Z,59.00
2017-08-27T15:13:19.377Z,58.80
2017-08-27T15:15:45.661Z,58.50
2017-08-27T15:18:12.755Z,54.90
2017-08-27T15:20:41.627Z,51.80
2017-08-27T15:23:09.646Z,53.80
2017-08-27T15:25:35.905Z,56.80
2017-08-27T15:28:03.454Z,59.30
2017-08-27T15:30:29.745Z,61.00
2017-08-27T15:32:56.012Z,59.50
2017-08-27T15:35:22.285Z,61.00
2017-08-27T15:37:48.555Z,63.20
2017-08-27T15:40:15.740Z,63.10
2017-08-27T15:42:42.119Z,62.60
2017-08-27T15:45:08.354Z,63.10
2017-08-27T15:47:34.572Z,63.90
2017-08-27T15:50:00.953Z,65.10
2017-08-27T15:52:27.988Z,65.20
2017-08-27T15:54:54.223Z,66.80
2017-08-27T15:57:20.502Z,66.60
2017-08-27T15:59:46.953Z,67.90
2017-08-27T16:02:13.191Z,66.70
2017-08-27T16:04:40.021Z,67.30
2017-08-27T16:07:06.255Z,68.30
2017-08-27T16:09:33.614Z,68.60
2017-08-27T16:11:59.876Z,69.20
2017-08-27T16:14:26.126Z,68.60
2017-08-27T16:16:52.435Z,66.90
2017-08-27T16:19:18.693Z,66.90
2017-08-27T16:21:45.848Z,68.60
2017-08-27T16:24:12.147Z,69.00
2017-08-27T16:26:39.155Z,69.10
2017-08-27T16:29:06.327Z,70.50
2017-08-27T16:31:32.643Z,71.40
2017-08-27T16:33:59.129Z,69.70
2017-08-27T16:36:25.397Z,71.00
2017-08-27T16:38:51.655Z,71.00
2017-08-27T16:41:17.934Z,72.30
2017-08-27T16:43:44.790Z,74.00
2017-08-27T16:46:12.042Z,74.10
2017-08-27T16:48:40.182Z,75.00
2017-08-27T16:51:06.465Z,75.60
2017-08-27T16:53:32.781Z,76.20
2017-08-27T16:55:59.071Z,76.30
2017-08-27T16:58:25.938Z,76.10
2017-08-27T17:00:52.772Z,75.60
2017-08-27T17:03:19.292Z,76.70
2017-08-27T17:05:46.021Z,76.20
2017-08-27T17:08:12.951Z,76.40
2017-08-27T17:10:39.405Z,77.10
2017-08-27T17:13:05.666Z,78.60
2017-08-27T17:15:32.781Z,78.40
2017-08-27T17:18:00.108Z,79.30
2017-08-27T17:20:27.066Z,79.60
2017-08-27T17:22:53.905Z,80.30
2017-08-27T17:25:20.859Z,81.30
2017-08-27T17:27:47.122Z,81.60
2017-08-27T17:30:13.736Z,81.60
2017-08-27T17:32:40.276Z,82.60
2017-08-27T17:35:07.378Z,82.60
2017-08-27T17:37:35.738Z,83.40
2017-08-27T17:40:02.704Z,84.00
2017-08-27T17:42:29.047Z,85.30
2017-08-27T17:44:56.846Z,84.80
2017-08-27T17:47:25.214Z,85.50
2017-08-27T17:49:52.231Z,86.40
2017-08-27T17:52:18.499Z,86.60
2017-08-27T17:54:44.752Z,87.20
2017-08-27T17:57:11.068Z,87.80
2017-08-27T17:59:37.374Z,88.50
2017-08-27T18:02:03.639Z,88.60
2017-08-27T18:04:30.197Z,89.30
2017-08-27T18:06:56.441Z,89.70
2017-08-27T18:09:22.703Z,90.00
2017-08-27T18:11:49.896Z,90.20
2017-08-27T18:14:16.836Z,90.50
2017-08-27T18:16:43.115Z,90.60
2017-08-27T18:19:11.042Z,90.70
2017-08-27T18:21:39.581Z,90.80
2017-08-27T18:24:05.811Z,90.90
2017-08-27T18:26:36.017Z,91.10
2017-08-27T18:29:02.266Z,91.30
2017-08-27T18:31:29.285Z,91.60
2017-08-27T18:33:57.545Z,91.80
2017-08-27T18:36:25.618Z,91.90
2017-08-27T18:38:52.785Z,92.30
2017-08-27T18:41:19.372Z,92.10
2017-08-27T18:43:46.249Z,92.60
2017-08-27T18:46:13.434Z,92.80
2017-08-27T18:48:42.277Z,92.80
2017-08-27T18:51:09.442Z,93.00
2017-08-27T18:53:36.626Z,93.30
2017-08-27T18:56:04.796Z,93.20
2017-08-27T18:58:31.024Z,93.50
2017-08-27T19:00:59.018Z,93.40
2017-08-27T19:03:25.331Z,93.60
2017-08-27T19:05:52.576Z,94.00
2017-08-27T19:08:18.854Z,94.10
2017-08-27T19:10:45.936Z,94.10
2017-08-27T19:13:12.180Z,94.00
2017-08-27T19:15:40.183Z,94.10
2017-08-27T19:18:06.730Z,94.30
2017-08-27T19:20:33.007Z,94.50
2017-08-27T19:23:01.041Z,94.70
2017-08-27T19:25:27.668Z,94.70
2017-08-27T19:27:54.760Z,94.90
2017-08-27T19:30:21.570Z,95.00
2017-08-27T19:32:47.865Z,95.10
2017-08-27T19:35:14.094Z,95.40
2017-08-27T19:37:40.367Z,95.40
2017-08-27T19:40:06.649Z,95.90
2017-08-27T19:42:32.909Z,95.80
2017-08-27T19:44:59.151Z,95.90
2017-08-27T19:47:25.647Z,96.40
2017-08-27T19:49:52.256Z,96.50
2017-08-27T19:52:18.477Z,96.70
2017-08-27T19:54:44.749Z,96.30
2017-08-27T19:57:11.257Z,96.20
2017-08-27T19:59:37.500Z,96.30
2017-08-27T20:02:03.770Z,96.40
2017-08-27T20:04:30.043Z,96.50
2017-08-27T20:06:56.265Z,96.40
2017-08-27T20:09:22.722Z,96.60
2017-08-27T20:11:48.950Z,96.60
2017-08-27T20:14:15.508Z,96.80
2017-08-27T20:16:41.814Z,96.90
2017-08-27T20:19:08.221Z,97.20
2017-08-27T20:21:35.222Z,97.50
2017-08-27T20:24:01.486Z,97.50
2017-08-27T20:26:27.743Z,97.60
2017-08-27T20:28:54.037Z,97.70
2017-08-27T20:31:20.338Z,97.60
2017-08-27T20:33:46.589Z,97.60
2017-08-27T20:36:12.838Z,98.10
2017-08-27T20:38:39.162Z,98.00
2017-08-27T20:41:05.388Z,98.00
2017-08-27T20:43:31.621Z,97.90
2017-08-27T20:45:58.195Z,97.90
2017-08-27T20:48:24.417Z,98.00
2017-08-27T20:50:50.871Z,98.10
2017-08-27T20:53:17.155Z,98.20
2017-08-27T20:55:43.400Z,98.30
2017-08-27T20:58:09.643Z,98.40
2017-08-27T21:00:35.903Z,98.40
2017-08-27T21:03:02.159Z,98.60
2017-08-27T21:05:28.382Z,98.50
2017-08-27T21:07:54.607Z,98.50
2017-08-27T21:10:20.858Z,98.40
2017-08-27T21:12:47.089Z,98.60
2017-08-27T21:15:13.314Z,98.90
2017-08-27T21:17:39.548Z,98.90
2017-08-27T21:20:05.814Z,99.00
2017-08-27T21:22:32.041Z,99.00
2017-08-27T21:24:58.294Z,99.10
2017-08-27T21:27:24.529Z,99.10
2017-08-27T21:29:50.757Z,99.10
2017-08-27T21:32:16.995Z,99.10
2017-08-27T21:34:43.228Z,99.10
2017-08-27T21:37:09.500Z,99.10
2017-08-27T21:39:35.739Z,99.20
2017-08-27T21:42:02.048Z,99.20
2017-08-27T21:44:28.344Z,98.80
2017-08-27T21:46:54.567Z,99.10
2017-08-27T21:49:20.794Z,99.30
2017-08-27T21:51:47.381Z,99.50
2017-08-27T21:54:13.613Z,99.60
2017-08-27T21:56:39.837Z,99.60
2017-08-27T21:59:06.306Z,99.50
2017-08-27T22:01:32.538Z,99.60
2017-08-27T22:03:58.768Z,99.60
2017-08-27T22:06:25.185Z,99.70
2017-08-27T22:08:51.401Z,99.80
2017-08-27T22:11:24.665Z,99.90
2017-08-27T22:13:50.907Z,99.90
2017-08-27T22:16:17.137Z,99.90
2017-08-27T22:18:43.415Z,99.90
2017-08-27T22:21:09.653Z,99.80
2017-08-27T22:23:35.859Z,99.80
2017-08-27T22:26:02.109Z,99.80
2017-08-27T22:28:28.392Z,99.80
2017-08-27T22:30:54.637Z,99.90
2017-08-27T22:33:20.874Z,99.60
2017-08-27T22:35:47.365Z,99.70
2017-08-27T22:38:13.590Z,99.80
2017-08-27T22:40:39.901Z,99.90
2017-08-27T22:43:06.356Z,99.90
2017-08-27T22:45:32.622Z,99.90
2017-08-27T22:47:59.601Z,99.90
2017-08-27T22:50:25.966Z,99.90
2017-08-27T22:52:52.199Z,99.90
2017-08-27T22:55:18.433Z,99.90
2017-08-27T22:57:44.726Z,99.90
2017-08-27T23:00:10.978Z,99.90
2017-08-27T23:02:37.241Z,99.90
2017-08-27T23:05:03.497Z,99.90
2017-08-27T23:07:29.719Z,99.90
2017-08-27T23:09:55.953Z,99.90
2017-08-27T23:12:22.201Z,99.90
2017-08-27T23:14:48.438Z,99.90
2017-08-27T23:17:14.672Z,99.90
2017-08-27T23:19:40.953Z,99.90
2017-08-27T23:22:07.182Z,99.90
2017-08-27T23:24:33.417Z,99.90
2017-08-27T23:26:59.689Z,99.90
2017-08-27T23:29:25.924Z,99.90
2017-08-27T23:31:52.140Z,99.90
2017-08-27T23:34:18.430Z,99.90
2017-08-27T23:36:44.654Z,99.90
2017-08-27T23:39:10.874Z,99.90
2017-08-27T23:41:37.111Z,99.90
2017-08-27T23:44:03.373Z,99.90
2017-08-27T23:46:29.731Z,99.90
2017-08-27T23:48:55.962Z,99.90
2017-08-27T23:51:22.188Z,99.90
2017-08-27T23:53:48.433Z,99.90
2017-08-27T23:56:14.649Z,99.90
2017-08-27T23:58:40.870Z,99.90
